createdAt,value
2018-04-29T00:00:36.497Z,85.62
2018-04-29T00:01:36.686Z,84.76
2018-04-29T00:02:36.500Z,83.51
2018-04-29T00:03:36.549Z,83.99
2018-04-29T00:04:36.503Z,83.04
2018-04-29T00:05:36.416Z,81.89
2018-04-29T00:06:36.458Z,81.95
2018-04-29T00:07:36.623Z,82.23
2018-04-29T00:08:36.371Z,81.47
2018-04-29T00:09:36.325Z,79.56
2018-04-29T00:10:36.344Z,79.94
2018-04-29T00:11:36.237Z,79.27
2018-04-29T00:12:36.156Z,78.89
2018-04-29T00:13:36.166Z,78.31
2018-04-29T00:14:36.140Z,78.22
2018-04-29T00:15:36.092Z,77.99
2018-04-29T00:16:36.104Z,77.51
2018-04-29T00:17:36.119Z,76.65
2018-04-29T00:18:35.985Z,76.94
2018-04-29T00:19:36.148Z,76.08
2018-04-29T00:20:36.009Z,75.03
2018-04-29T00:21:36.156Z,75.98
2018-04-29T00:22:35.944Z,74.55
2018-04-29T00:23:35.868Z,74.37
2018-04-29T00:24:35.967Z,74.27
2018-04-29T00:25:35.952Z,74.55
2018-04-29T00:26:35.915Z,74.37
2018-04-29T00:27:35.724Z,73.79
2018-04-29T00:28:35.776Z,72.74
2018-04-29T00:29:35.781Z,73.79
2018-04-29T00:30:35.662Z,73.32
2018-04-29T00:31:35.636Z,74.65
2018-04-29T00:32:35.639Z,72.36
2018-04-29T00:33:35.644Z,73.03
2018-04-29T00:34:35.552Z,73.03
2018-04-29T00:35:35.612Z,71.88
2018-04-29T00:36:35.480Z,71.12
2018-04-29T00:37:35.577Z,72.36
2018-04-29T00:38:35.619Z,70.54
2018-04-29T00:39:35.421Z,70.32
2018-04-29T00:40:35.543Z,69.93
2018-04-29T00:41:35.540Z,69.93
2018-04-29T00:42:35.352Z,69.08
2018-04-29T00:43:35.285Z,69.37
2018-04-29T00:44:35.345Z,68.60
2018-04-29T00:45:35.435Z,68.03
2018-04-29T00:46:35.340Z,66.88
2018-04-29T00:47:35.193Z,67.14
2018-04-29T00:48:35.202Z,66.09
2018-04-29T00:49:35.112Z,64.78
2018-04-29T00:50:35.211Z,64.94
2018-04-29T00:51:35.054Z,65.80
2018-04-29T00:52:35.139Z,64.09
2018-04-29T00:53:34.993Z,66.09
2018-04-29T00:54:35.101Z,65.36
2018-04-29T00:55:35.025Z,64.85
2018-04-29T00:56:34.955Z,65.55
2018-04-29T00:57:34.934Z,65.89
2018-04-29T00:58:34.957Z,65.33
2018-04-29T00:59:34.966Z,64.75
2018-04-29T01:00:34.806Z,65.52
2018-04-29T01:01:34.812Z,65.45
2018-04-29T01:02:34.784Z,64.85
2018-04-29T01:03:34.717Z,65.52
2018-04-29T01:04:34.729Z,64.65
2018-04-29T01:05:34.790Z,62.84
2018-04-29T01:06:34.776Z,63.32
2018-04-29T01:07:34.838Z,62.18
2018-04-29T01:08:34.757Z,62.46
2018-04-29T01:09:34.656Z,63.32
2018-04-29T01:10:34.655Z,62.46
2018-04-29T01:11:34.632Z,62.27
2018-04-29T01:12:34.594Z,61.99
2018-04-29T01:13:34.482Z,61.04
2018-04-29T01:14:34.407Z,60.75
2018-04-29T01:15:34.622Z,58.75
2018-04-29T01:16:34.564Z,60.17
2018-04-29T01:17:34.496Z,59.99
2018-04-29T01:18:34.447Z,59.70
2018-04-29T01:19:34.277Z,59.03
2018-04-29T01:20:34.606Z,59.41
2018-04-29T01:21:34.294Z,57.50
2018-04-29T01:22:34.199Z,57.70
2018-04-29T01:23:34.459Z,57.19
2018-04-29T01:24:34.132Z,57.50
2018-04-29T01:25:34.201Z,57.50
2018-04-29T01:26:34.284Z,56.62
2018-04-29T01:27:34.141Z,57.00
2018-04-29T01:28:34.221Z,56.90
2018-04-29T01:29:34.134Z,57.09
2018-04-29T01:30:34.238Z,57.28
2018-04-29T01:31:34.168Z,55.95
2018-04-29T01:32:33.950Z,57.67
2018-04-29T01:33:34.094Z,57.09
2018-04-29T01:34:33.864Z,56.52
2018-04-29T01:35:33.900Z,55.47
2018-04-29T01:36:33.947Z,56.43
2018-04-29T01:37:33.877Z,56.62
2018-04-29T01:38:33.812Z,56.33
2018-04-29T01:39:33.792Z,57.19
2018-04-29T01:40:33.657Z,56.71
2018-04-29T01:41:33.667Z,55.85
2018-04-29T01:42:33.819Z,55.47
2018-04-29T01:43:33.743Z,55.66
2018-04-29T01:44:33.722Z,54.80
2018-04-29T01:45:33.605Z,55.38
2018-04-29T01:46:33.489Z,55.57
2018-04-29T01:47:33.576Z,54.80
2018-04-29T01:48:33.684Z,55.47
2018-04-29T01:49:33.428Z,55.66
2018-04-29T01:50:33.385Z,56.24
2018-04-29T01:51:33.477Z,55.95
2018-04-29T01:52:33.389Z,55.47
2018-04-29T01:53:33.410Z,53.95
2018-04-29T01:54:33.358Z,54.04
2018-04-29T01:55:33.383Z,53.85
2018-04-29T01:56:33.419Z,53.76
2018-04-29T01:57:33.349Z,53.95
2018-04-29T01:58:33.357Z,53.47
2018-04-29T01:59:33.168Z,53.76
2018-04-29T02:00:33.180Z,54.43
2018-04-29T02:01:33.186Z,54.71
2018-04-29T02:02:33.179Z,54.52
2018-04-29T02:03:33.210Z,53.95
2018-04-29T02:04:33.089Z,53.76
2018-04-29T02:05:32.956Z,53.00
2018-04-29T02:06:33.013Z,53.00
2018-04-29T02:07:33.129Z,53.19
2018-04-29T02:08:32.882Z,52.90
2018-04-29T02:09:32.844Z,52.14
2018-04-29T02:10:32.816Z,51.56
2018-04-29T02:11:32.774Z,51.66
2018-04-29T02:12:32.817Z,52.90
2018-04-29T02:13:32.831Z,51.66
2018-04-29T02:14:32.771Z,52.14
2018-04-29T02:15:32.894Z,51.64
2018-04-29T02:16:32.886Z,50.71
2018-04-29T02:17:32.632Z,51.18
2018-04-29T02:18:32.664Z,50.99
2018-04-29T02:19:32.721Z,50.30
2018-04-29T02:20:32.696Z,49.16
2018-04-29T02:21:32.603Z,50.49
2018-04-29T02:22:32.542Z,49.63
2018-04-29T02:23:32.552Z,50.21
2018-04-29T02:24:32.504Z,50.59
2018-04-29T02:25:32.477Z,50.87
2018-04-29T02:26:32.497Z,50.78
2018-04-29T02:27:32.325Z,51.25
2018-04-29T02:28:32.282Z,51.45
2018-04-29T02:29:32.292Z,51.82
2018-04-29T02:30:32.285Z,52.04
2018-04-29T02:31:32.352Z,52.01
2018-04-29T02:32:32.315Z,52.30
2018-04-29T02:33:32.339Z,52.11
2018-04-29T02:34:32.147Z,52.52
2018-04-29T02:35:32.131Z,53.56
2018-04-29T02:36:32.162Z,54.02
2018-04-29T02:37:32.035Z,53.09
2018-04-29T02:38:32.075Z,53.19
2018-04-29T02:39:32.254Z,52.42
2018-04-29T02:40:32.055Z,53.38
2018-04-29T02:41:31.929Z,53.35
2018-04-29T02:42:32.108Z,53.85
2018-04-29T02:43:31.848Z,53.28
2018-04-29T02:44:31.821Z,53.25
2018-04-29T02:45:31.943Z,52.33
2018-04-29T02:46:31.912Z,53.38
2018-04-29T02:47:31.765Z,54.14
2018-04-29T02:48:31.862Z,52.90
2018-04-29T02:49:31.840Z,51.76
2018-04-29T02:50:31.803Z,53.00
2018-04-29T02:51:31.654Z,55.00
2018-04-29T02:52:31.768Z,54.71
2018-04-29T02:53:31.649Z,53.85
2018-04-29T02:54:31.689Z,54.24
2018-04-29T02:55:31.637Z,54.71
2018-04-29T02:56:31.475Z,56.24
2018-04-29T02:57:31.491Z,56.04
2018-04-29T02:58:31.445Z,54.39
2018-04-29T02:59:31.485Z,54.21
2018-04-29T03:00:31.445Z,52.97
2018-04-29T03:01:31.338Z,51.25
2018-04-29T03:02:31.503Z,51.45
2018-04-29T03:03:31.383Z,50.59
2018-04-29T03:04:31.318Z,50.01
2018-04-29T03:05:31.253Z,51.54
2018-04-29T03:06:31.363Z,50.59
2018-04-29T03:07:31.203Z,49.26
2018-04-29T03:08:31.245Z,50.40
2018-04-29T03:09:31.113Z,48.87
2018-04-29T03:10:31.184Z,50.30
2018-04-29T03:11:31.097Z,49.35
2018-04-29T03:12:31.178Z,49.26
2018-04-29T03:13:31.018Z,48.58
2018-04-29T03:14:30.961Z,48.68
2018-04-29T03:15:30.950Z,47.63
2018-04-29T03:16:31.078Z,49.16
2018-04-29T03:17:30.981Z,48.87
2018-04-29T03:18:30.968Z,48.87
2018-04-29T03:19:30.827Z,49.54
2018-04-29T03:20:30.920Z,48.49
2018-04-29T03:21:30.857Z,49.35
2018-04-29T03:22:30.777Z,49.63
2018-04-29T03:23:30.696Z,48.49
2018-04-29T03:24:30.783Z,48.97
2018-04-29T03:25:30.724Z,47.63
2018-04-29T03:26:30.766Z,47.25
2018-04-29T03:27:30.594Z,47.63
2018-04-29T03:28:30.553Z,48.78
2018-04-29T03:29:30.629Z,48.78
2018-04-29T03:30:30.567Z,48.39
2018-04-29T03:31:30.484Z,47.63
2018-04-29T03:32:30.533Z,47.82
2018-04-29T03:33:30.431Z,47.16
2018-04-29T03:34:30.435Z,46.66
2018-04-29T03:35:30.354Z,45.32
2018-04-29T03:36:30.423Z,46.18
2018-04-29T03:37:30.297Z,46.37
2018-04-29T03:38:30.247Z,45.04
2018-04-29T03:39:30.265Z,44.66
2018-04-29T03:40:30.193Z,44.27
2018-04-29T03:41:30.304Z,44.27
2018-04-29T03:42:30.242Z,43.32
2018-04-29T03:43:30.168Z,44.37
2018-04-29T03:44:30.082Z,44.37
2018-04-29T03:45:30.176Z,44.56
2018-04-29T03:46:30.232Z,43.42
2018-04-29T03:47:30.152Z,43.42
2018-04-29T03:48:30.174Z,44.27
2018-04-29T03:49:30.053Z,43.90
2018-04-29T03:50:30.061Z,43.42
2018-04-29T03:51:29.878Z,42.85
2018-04-29T03:52:29.850Z,42.85
2018-04-29T03:53:29.811Z,43.13
2018-04-29T03:54:29.837Z,43.23
2018-04-29T03:55:29.884Z,42.08
2018-04-29T03:56:29.760Z,42.08
2018-04-29T03:57:29.719Z,41.71
2018-04-29T03:58:29.854Z,41.99
2018-04-29T03:59:29.746Z,42.08
2018-04-29T04:00:29.670Z,41.71
2018-04-29T04:01:29.669Z,40.75
2018-04-29T04:02:29.598Z,41.52
2018-04-29T04:03:29.550Z,40.66
2018-04-29T04:04:29.498Z,41.04
2018-04-29T04:05:29.493Z,39.70
2018-04-29T04:06:29.435Z,41.42
2018-04-29T04:07:29.412Z,40.37
2018-04-29T04:08:29.603Z,41.80
2018-04-29T04:09:29.398Z,43.04
2018-04-29T04:10:29.322Z,42.76
2018-04-29T04:11:29.306Z,43.13
2018-04-29T04:12:29.361Z,42.66
2018-04-29T04:13:29.230Z,43.04
2018-04-29T04:14:29.209Z,42.18
2018-04-29T04:15:29.228Z,43.13
2018-04-29T04:16:29.258Z,42.66
2018-04-29T04:17:29.111Z,42.56
2018-04-29T04:18:29.105Z,43.13
2018-04-29T04:19:29.054Z,42.08
2018-04-29T04:20:29.228Z,42.18
2018-04-29T04:21:29.046Z,41.42
2018-04-29T04:22:29.035Z,41.42
2018-04-29T04:23:29.007Z,40.66
2018-04-29T04:24:28.906Z,41.99
2018-04-29T04:25:29.004Z,41.52
2018-04-29T04:26:28.857Z,41.61
2018-04-29T04:27:28.911Z,41.42
2018-04-29T04:28:28.823Z,40.18
2018-04-29T04:29:28.759Z,40.94
2018-04-29T04:30:28.754Z,40.16
2018-04-29T04:31:28.844Z,39.31
2018-04-29T04:32:28.808Z,38.45
2018-04-29T04:33:28.783Z,39.02
2018-04-29T04:34:28.627Z,38.45
2018-04-29T04:35:28.607Z,38.64
2018-04-29T04:36:28.665Z,37.40
2018-04-29T04:37:28.606Z,39.04
2018-04-29T04:38:28.649Z,39.69
2018-04-29T04:39:28.492Z,39.69
2018-04-29T04:40:28.469Z,39.61
2018-04-29T04:41:28.537Z,39.70
2018-04-29T04:42:28.474Z,39.80
2018-04-29T04:43:28.426Z,40.47
2018-04-29T04:44:28.330Z,41.80
2018-04-29T04:45:28.387Z,41.71
2018-04-29T04:46:28.296Z,43.51
2018-04-29T04:47:28.327Z,44.37
2018-04-29T04:48:28.196Z,44.66
2018-04-29T04:49:28.246Z,45.23
2018-04-29T04:50:28.160Z,45.32
2018-04-29T04:51:28.171Z,46.11
2018-04-29T04:52:28.175Z,46.28
2018-04-29T04:53:28.126Z,45.89
2018-04-29T04:54:28.038Z,45.23
2018-04-29T04:55:27.996Z,46.20
2018-04-29T04:56:27.975Z,46.58
2018-04-29T04:57:27.989Z,47.34
2018-04-29T04:58:28.011Z,47.44
2018-04-29T04:59:27.969Z,47.25
2018-04-29T05:00:27.960Z,47.44
2018-04-29T05:01:27.874Z,48.87
2018-04-29T05:02:27.810Z,49.44
2018-04-29T05:03:27.797Z,50.21
2018-04-29T05:04:27.731Z,49.76
2018-04-29T05:05:27.873Z,50.71
2018-04-29T05:06:27.685Z,50.99
2018-04-29T05:07:27.657Z,51.66
2018-04-29T05:08:27.632Z,52.14
2018-04-29T05:09:27.606Z,52.23
2018-04-29T05:10:27.732Z,53.95
2018-04-29T05:11:27.557Z,52.23
2018-04-29T05:12:27.596Z,52.42
2018-04-29T05:13:27.497Z,53.95
2018-04-29T05:14:27.607Z,54.26
2018-04-29T05:15:27.532Z,54.07
2018-04-29T05:16:27.416Z,54.93
2018-04-29T05:17:27.361Z,55.31
2018-04-29T05:18:27.313Z,55.21
2018-04-29T05:19:27.368Z,54.36
2018-04-29T05:20:27.353Z,54.26
2018-04-29T05:21:27.317Z,55.41
2018-04-29T05:22:27.209Z,56.07
2018-04-29T05:23:27.282Z,55.31
2018-04-29T05:24:27.154Z,56.55
2018-04-29T05:25:27.142Z,55.98
2018-04-29T05:26:27.156Z,54.74
2018-04-29T05:27:27.065Z,56.07
2018-04-29T05:28:27.102Z,55.31
2018-04-29T05:29:27.051Z,55.50
2018-04-29T05:30:26.982Z,54.83
2018-04-29T05:31:26.953Z,55.88
2018-04-29T05:32:27.040Z,55.31
2018-04-29T05:33:27.063Z,54.93
2018-04-29T05:34:27.002Z,54.74
2018-04-29T05:35:26.870Z,54.36
2018-04-29T05:36:26.813Z,55.12
2018-04-29T05:37:26.787Z,54.74
2018-04-29T05:38:26.768Z,56.07
2018-04-29T05:39:26.725Z,55.79
2018-04-29T05:40:26.812Z,55.31
2018-04-29T05:41:26.675Z,54.93
2018-04-29T05:42:26.649Z,55.82
2018-04-29T05:43:26.621Z,54.57
2018-04-29T05:44:26.663Z,55.24
2018-04-29T05:45:26.583Z,54.67
2018-04-29T05:46:26.522Z,54.96
2018-04-29T05:47:26.510Z,55.15
2018-04-29T05:48:26.463Z,53.33
2018-04-29T05:49:26.455Z,53.91
2018-04-29T05:50:26.411Z,53.81
2018-04-29T05:51:26.474Z,55.24
2018-04-29T05:52:26.385Z,54.10
2018-04-29T05:53:26.331Z,54.48
2018-04-29T05:54:26.435Z,55.72
2018-04-29T05:55:26.351Z,54.00
2018-04-29T05:56:26.242Z,55.34
2018-04-29T05:57:26.224Z,55.53
2018-04-29T05:58:26.191Z,56.20
2018-04-29T05:59:26.155Z,56.96
2018-04-29T06:00:26.297Z,57.24
2018-04-29T06:01:26.214Z,56.77
2018-04-29T06:02:26.074Z,56.77
2018-04-29T06:03:26.223Z,56.32
2018-04-29T06:04:26.069Z,55.46
2018-04-29T06:05:25.984Z,57.46
2018-04-29T06:06:26.067Z,57.56
2018-04-29T06:07:26.019Z,58.14
2018-04-29T06:08:25.978Z,58.51
2018-04-29T06:09:25.869Z,58.70
2018-04-29T06:10:25.854Z,59.85
2018-04-29T06:11:25.824Z,59.98
2018-04-29T06:12:25.844Z,61.03
2018-04-29T06:13:25.772Z,61.32
2018-04-29T06:14:25.875Z,60.36
2018-04-29T06:15:25.712Z,65.71
2018-04-29T06:16:25.780Z,64.85
2018-04-29T06:17:25.658Z,65.74
2018-04-29T06:18:25.627Z,66.60
2018-04-29T06:19:25.713Z,65.64
2018-04-29T06:20:25.644Z,64.98
2018-04-29T06:21:25.653Z,62.97
2018-04-29T06:22:25.533Z,63.26
2018-04-29T06:23:25.490Z,58.19
2018-04-29T06:24:25.519Z,60.20
2018-04-29T06:25:25.466Z,61.35
2018-04-29T06:26:25.412Z,72.62
2018-04-29T06:27:25.369Z,65.45
2018-04-29T06:28:25.351Z,65.45
2018-04-29T06:29:25.425Z,67.84
2018-04-29T06:30:25.355Z,67.18
2018-04-29T06:31:25.264Z,67.94
2018-04-29T06:32:25.248Z,69.47
2018-04-29T06:33:25.420Z,70.04
2018-04-29T06:34:25.214Z,67.94
2018-04-29T06:35:25.199Z,69.47
2018-04-29T06:36:25.132Z,69.76
2018-04-29T06:37:25.138Z,71.00
2018-04-29T06:38:25.087Z,69.85
2018-04-29T06:39:25.050Z,70.42
2018-04-29T06:40:25.079Z,70.14
2018-04-29T06:41:25.002Z,69.95
2018-04-29T06:42:24.971Z,69.56
2018-04-29T06:43:24.945Z,70.14
2018-04-29T06:44:25.830Z,69.70
2018-04-29T06:45:24.892Z,70.46
2018-04-29T06:46:24.993Z,69.60
2018-04-29T06:47:24.916Z,68.64
2018-04-29T06:48:24.810Z,69.79
2018-04-29T06:49:24.813Z,70.84
2018-04-29T06:50:24.838Z,71.61
2018-04-29T06:51:24.871Z,68.07
2018-04-29T06:52:24.798Z,67.88
2018-04-29T06:53:24.678Z,69.60
2018-04-29T06:54:24.664Z,69.79
2018-04-29T06:55:24.639Z,69.02
2018-04-29T06:56:24.641Z,69.70
2018-04-29T06:57:24.564Z,72.56
2018-04-29T06:58:24.537Z,71.03
2018-04-29T06:59:24.509Z,69.70
2018-04-29T07:00:24.485Z,69.31
2018-04-29T07:01:24.456Z,66.06
2018-04-29T07:02:24.469Z,67.11
2018-04-29T07:03:24.407Z,70.07
2018-04-29T07:04:24.373Z,67.88
2018-04-29T07:05:24.344Z,69.41
2018-04-29T07:06:24.436Z,68.64
2018-04-29T07:07:24.302Z,69.70
2018-04-29T07:08:24.284Z,71.51
2018-04-29T07:09:24.264Z,66.92
2018-04-29T07:10:24.210Z,66.54
2018-04-29T07:11:24.241Z,67.11
2018-04-29T07:12:24.267Z,64.82
2018-04-29T07:13:24.252Z,70.75
2018-04-29T07:14:24.278Z,64.91
2018-04-29T07:15:24.079Z,65.48
2018-04-29T07:16:24.085Z,66.83
2018-04-29T07:17:24.047Z,65.58
2018-04-29T07:18:24.118Z,61.57
2018-04-29T07:19:24.064Z,60.42
2018-04-29T07:20:24.019Z,64.82
2018-04-29T07:21:23.916Z,65.01
2018-04-29T07:22:23.959Z,65.87
2018-04-29T07:23:23.874Z,65.97
2018-04-29T07:24:23.843Z,63.96
2018-04-29T07:25:23.963Z,63.00
2018-04-29T07:26:23.790Z,57.07
2018-04-29T07:27:23.756Z,58.03
2018-04-29T07:28:23.823Z,55.64
2018-04-29T07:29:23.707Z,55.64
2018-04-29T07:30:23.668Z,55.35
2018-04-29T07:31:23.648Z,53.53
2018-04-29T07:32:23.639Z,48.75
2018-04-29T07:33:23.595Z,46.84
2018-04-29T07:34:23.568Z,44.72
2018-04-29T07:35:23.545Z,45.29
2018-04-29T07:36:23.517Z,42.43
2018-04-29T07:37:23.487Z,42.73
2018-04-29T07:38:23.529Z,40.99
2018-04-29T07:39:23.436Z,40.42
2018-04-29T07:40:23.404Z,39.29
2018-04-29T07:41:23.387Z,39.56
2018-04-29T07:42:23.345Z,40.34
2018-04-29T07:43:23.320Z,36.43
2018-04-29T07:44:23.299Z,40.34
2018-04-29T07:45:23.265Z,40.44
2018-04-29T07:46:23.308Z,37.85
2018-04-29T07:47:23.246Z,39.86
2018-04-29T07:48:23.187Z,37.21
2018-04-29T07:49:23.204Z,40.08
2018-04-29T07:50:23.134Z,44.19
2018-04-29T07:51:23.112Z,41.32
2018-04-29T07:52:23.092Z,42.47
2018-04-29T07:53:23.081Z,42.47
2018-04-29T07:54:23.033Z,43.52
2018-04-29T07:55:22.999Z,43.80
2018-04-29T07:56:22.975Z,43.92
2018-04-29T07:57:22.946Z,45.55
2018-04-29T07:58:22.920Z,47.66
2018-04-29T07:59:22.895Z,46.98
2018-04-29T08:00:22.936Z,46.51
2018-04-29T08:01:22.841Z,48.23
2018-04-29T08:02:22.814Z,43.73
2018-04-29T08:03:22.789Z,49.48
2018-04-29T08:04:22.774Z,48.80
2018-04-29T08:05:22.878Z,47.08
2018-04-29T08:06:22.717Z,47.85
2018-04-29T08:07:22.685Z,44.90
2018-04-29T08:08:22.671Z,42.03
2018-04-29T08:09:22.645Z,44.88
2018-04-29T08:10:22.613Z,49.00
2018-04-29T08:11:22.584Z,39.43
2018-04-29T08:12:22.561Z,44.59
2018-04-29T08:13:22.535Z,45.17
2018-04-29T08:14:22.503Z,49.86
2018-04-29T08:15:22.506Z,50.91
2018-04-29T08:16:22.454Z,49.38
2018-04-29T08:17:22.436Z,46.61
2018-04-29T08:18:22.470Z,48.71
2018-04-29T08:19:22.376Z,50.43
2018-04-29T08:20:22.355Z,52.25
2018-04-29T08:21:22.332Z,50.91
2018-04-29T08:22:22.297Z,46.03
2018-04-29T08:23:22.280Z,50.50
2018-04-29T08:24:22.245Z,50.98
2018-04-29T08:25:22.230Z,50.91
2018-04-29T08:26:22.197Z,50.62
2018-04-29T08:27:22.171Z,51.01
2018-04-29T08:28:22.230Z,50.91
2018-04-29T08:29:22.199Z,49.76
2018-04-29T08:30:22.091Z,48.23
2018-04-29T08:31:22.270Z,50.07
2018-04-29T08:32:22.047Z,45.94
2018-04-29T08:33:22.011Z,49.86
2018-04-29T08:34:22.090Z,49.29
2018-04-29T08:35:21.962Z,47.85
2018-04-29T08:36:21.933Z,48.52
2018-04-29T08:37:21.907Z,49.66
2018-04-29T08:38:21.878Z,49.86
2018-04-29T08:39:21.861Z,49.95
2018-04-29T08:40:21.830Z,46.12
2018-04-29T08:41:21.810Z,48.30
2018-04-29T08:42:21.780Z,44.19
2018-04-29T08:43:21.884Z,48.68
2018-04-29T08:44:21.733Z,49.26
2018-04-29T08:45:21.705Z,50.60
2018-04-29T08:46:21.681Z,54.26
2018-04-29T08:47:21.656Z,50.81
2018-04-29T08:48:21.626Z,51.46
2018-04-29T08:49:21.603Z,52.44
2018-04-29T08:50:21.570Z,51.48
2018-04-29T08:51:21.545Z,54.83
2018-04-29T08:52:21.522Z,55.69
2018-04-29T08:53:21.517Z,56.94
2018-04-29T08:54:21.464Z,56.08
2018-04-29T08:55:21.443Z,54.16
2018-04-29T08:56:21.419Z,55.10
2018-04-29T08:57:21.386Z,55.00
2018-04-29T08:58:21.361Z,52.61
2018-04-29T08:59:21.383Z,52.61
2018-04-29T09:00:21.311Z,50.12
2018-04-29T09:01:21.296Z,46.58
2018-04-29T09:02:21.268Z,44.95
2018-04-29T09:03:21.228Z,44.29
2018-04-29T09:04:21.207Z,44.67
2018-04-29T09:05:21.178Z,46.01
2018-04-29T09:06:21.153Z,44.31
2018-04-29T09:07:21.211Z,45.17
2018-04-29T09:08:21.151Z,44.40
2018-04-29T09:09:21.071Z,44.79
2018-04-29T09:10:21.059Z,41.82
2018-04-29T09:11:21.017Z,44.12
2018-04-29T09:12:21.122Z,44.12
2018-04-29T09:13:20.965Z,41.94
2018-04-29T09:14:21.059Z,41.94
2018-04-29T09:15:20.919Z,39.64
2018-04-29T09:16:20.889Z,41.74
2018-04-29T09:17:20.862Z,44.73
2018-04-29T09:18:20.840Z,42.24
2018-04-29T09:19:20.817Z,41.38
2018-04-29T09:20:20.783Z,44.54
2018-04-29T09:21:20.886Z,44.83
2018-04-29T09:22:20.736Z,44.76
2018-04-29T09:23:20.701Z,42.44
2018-04-29T09:24:20.702Z,48.66
2018-04-29T09:25:20.649Z,49.52
2018-04-29T09:26:20.626Z,49.91
2018-04-29T09:27:20.613Z,51.08
2018-04-29T09:28:20.582Z,52.81
2018-04-29T09:29:20.547Z,50.99
2018-04-29T09:30:20.525Z,52.04
2018-04-29T09:31:20.546Z,50.70
2018-04-29T09:32:20.487Z,50.77
2018-04-29T09:33:20.459Z,49.33
2018-04-29T09:34:20.432Z,46.84
2018-04-29T09:35:20.402Z,53.45
2018-04-29T09:36:20.378Z,51.25
2018-04-29T09:37:20.348Z,51.08
2018-04-29T09:38:20.330Z,50.89
2018-04-29T09:39:20.339Z,50.99
2018-04-29T09:40:20.302Z,55.49
2018-04-29T09:41:20.263Z,57.89
2018-04-29T09:42:20.244Z,43.23
2018-04-29T09:43:20.269Z,50.89
2018-04-29T09:44:20.184Z,54.56
2018-04-29T09:45:20.192Z,50.75
2018-04-29T09:46:20.228Z,52.38
2018-04-29T09:47:20.111Z,60.05
2018-04-29T09:48:20.081Z,63.60
2018-04-29T09:49:20.058Z,62.65
2018-04-29T09:50:20.035Z,61.21
2018-04-29T09:51:20.008Z,58.62
2018-04-29T09:52:19.990Z,64.28
2018-04-29T09:53:20.054Z,61.49
2018-04-29T09:54:19.931Z,65.14
2018-04-29T09:55:19.988Z,62.87
2018-04-29T09:56:19.894Z,60.47
2018-04-29T09:57:19.867Z,66.77
2018-04-29T09:58:19.845Z,65.27
2018-04-29T09:59:19.875Z,62.87
2018-04-29T10:00:19.795Z,60.50
2018-04-29T10:01:19.805Z,65.46
2018-04-29T10:02:19.751Z,69.97
2018-04-29T10:03:19.726Z,75.38
2018-04-29T10:04:19.697Z,77.31
2018-04-29T10:05:19.675Z,79.99
2018-04-29T10:06:19.653Z,80.28
2018-04-29T10:07:19.632Z,81.34
2018-04-29T10:08:19.600Z,80.09
2018-04-29T10:09:19.576Z,77.84
2018-04-29T10:10:19.571Z,76.98
2018-04-29T10:11:19.591Z,76.40
2018-04-29T10:12:19.510Z,73.66
2018-04-29T10:13:19.491Z,75.48
2018-04-29T10:14:19.474Z,73.91
2018-04-29T10:15:19.440Z,79.67
2018-04-29T10:16:19.571Z,77.11
2018-04-29T10:17:19.398Z,78.27
2018-04-29T10:18:19.368Z,80.20
2018-04-29T10:19:19.340Z,77.33
2018-04-29T10:20:19.327Z,76.56
2018-04-29T10:21:19.296Z,76.50
2018-04-29T10:22:19.275Z,76.88
2018-04-29T10:23:19.263Z,74.39
2018-04-29T10:24:19.242Z,75.15
2018-04-29T10:25:19.212Z,70.36
2018-04-29T10:26:19.187Z,76.40
2018-04-29T10:27:19.179Z,77.84
2018-04-29T10:28:19.144Z,79.03
2018-04-29T10:29:19.116Z,79.71
2018-04-29T10:30:19.095Z,80.32
2018-04-29T10:31:19.090Z,82.24
2018-04-29T10:32:19.114Z,80.51
2018-04-29T10:33:19.080Z,82.09
2018-04-29T10:34:19.001Z,82.19
2018-04-29T10:35:18.981Z,84.59
2018-04-29T10:36:18.968Z,83.92
2018-04-29T10:37:18.932Z,84.44
2018-04-29T10:38:18.906Z,85.50
2018-04-29T10:39:18.894Z,83.92
2018-04-29T10:40:18.868Z,83.44
2018-04-29T10:41:18.844Z,85.02
2018-04-29T10:42:18.821Z,85.46
2018-04-29T10:43:18.805Z,85.31
2018-04-29T10:44:18.922Z,85.50
2018-04-29T10:45:18.746Z,84.78
2018-04-29T10:46:18.725Z,86.94
2018-04-29T10:47:18.709Z,86.13
2018-04-29T10:48:18.694Z,86.08
2018-04-29T10:49:18.666Z,86.08
2018-04-29T10:50:18.640Z,85.36
2018-04-29T10:51:18.622Z,83.49
2018-04-29T10:52:18.597Z,84.64
2018-04-29T10:53:18.573Z,83.20
2018-04-29T10:54:18.555Z,82.59
2018-04-29T10:55:18.535Z,82.73
2018-04-29T10:56:18.513Z,83.20
2018-04-29T10:57:18.493Z,85.17
2018-04-29T10:58:18.464Z,83.73
2018-04-29T10:59:18.437Z,83.11
2018-04-29T11:00:18.414Z,84.64
2018-04-29T11:01:18.395Z,82.43
2018-04-29T11:02:18.373Z,84.21
2018-04-29T11:03:18.352Z,84.69
2018-04-29T11:04:18.469Z,83.63
2018-04-29T11:05:18.296Z,85.55
2018-04-29T11:06:18.279Z,84.59
2018-04-29T11:07:18.259Z,86.27
2018-04-29T11:08:18.239Z,86.36
2018-04-29T11:09:18.213Z,87.37
2018-04-29T11:10:18.236Z,87.80
2018-04-29T11:11:18.171Z,88.18
2018-04-29T11:12:18.158Z,88.85
2018-04-29T11:13:18.183Z,88.24
2018-04-29T11:14:18.106Z,87.18
2018-04-29T11:15:18.108Z,87.90
2018-04-29T11:16:18.086Z,88.90
2018-04-29T11:17:18.045Z,88.81
2018-04-29T11:18:18.011Z,88.71
2018-04-29T11:19:18.012Z,88.51
2018-04-29T11:20:17.972Z,88.18
2018-04-29T11:21:17.993Z,88.57
2018-04-29T11:22:18.062Z,88.71
2018-04-29T11:23:17.984Z,88.53
2018-04-29T11:24:17.997Z,89.20
2018-04-29T11:25:17.865Z,89.29
2018-04-29T11:26:17.843Z,88.95
2018-04-29T11:27:17.833Z,88.85
2018-04-29T11:28:17.817Z,89.48
2018-04-29T11:29:17.786Z,88.51
2018-04-29T11:30:17.760Z,88.81
2018-04-29T11:31:17.740Z,89.39
2018-04-29T11:32:17.709Z,88.46
2018-04-29T11:33:17.683Z,88.61
2018-04-29T11:34:17.670Z,88.65
2018-04-29T11:35:17.722Z,88.56
2018-04-29T11:36:17.624Z,87.88
2018-04-29T11:37:17.601Z,87.45
2018-04-29T11:38:17.579Z,86.14
2018-04-29T11:39:17.568Z,85.61
2018-04-29T11:40:17.619Z,85.37
2018-04-29T11:41:17.574Z,83.50
2018-04-29T11:42:17.500Z,83.44
2018-04-29T11:43:17.568Z,81.93
2018-04-29T11:44:17.467Z,82.18
2018-04-29T11:45:17.436Z,84.75
2018-04-29T11:46:17.414Z,86.35
2018-04-29T11:47:17.515Z,85.61
2018-04-29T11:48:17.388Z,84.03
2018-04-29T11:49:17.382Z,84.65
2018-04-29T11:50:17.371Z,85.13
2018-04-29T11:51:17.323Z,84.84
2018-04-29T11:52:17.292Z,85.47
2018-04-29T11:53:17.296Z,85.61
2018-04-29T11:54:17.258Z,83.50
2018-04-29T11:55:17.226Z,82.67
2018-04-29T11:56:17.256Z,81.90
2018-04-29T11:57:17.188Z,82.24
2018-04-29T11:58:17.165Z,82.05
2018-04-29T11:59:17.149Z,83.73
2018-04-29T12:00:17.132Z,82.53
2018-04-29T12:01:17.106Z,80.68
2018-04-29T12:02:17.171Z,78.11
2018-04-29T12:03:17.073Z,74.38
2018-04-29T12:04:17.210Z,72.20
2018-04-29T12:05:17.025Z,70.34
2018-04-29T12:06:17.008Z,65.95
2018-04-29T12:07:16.995Z,62.46
2018-04-29T12:08:16.971Z,60.36
2018-04-29T12:09:16.953Z,59.81
2018-04-29T12:10:16.938Z,58.94
2018-04-29T12:11:16.911Z,59.42
2018-04-29T12:12:16.885Z,58.06
2018-04-29T12:13:16.874Z,58.69
2018-04-29T12:14:16.851Z,58.78
2018-04-29T12:15:16.831Z,58.88
2018-04-29T12:16:16.830Z,59.05
2018-04-29T12:17:16.797Z,61.60
2018-04-29T12:18:16.786Z,62.69
2018-04-29T12:19:16.775Z,62.88
2018-04-29T12:20:16.755Z,61.56
2018-04-29T12:21:16.733Z,61.85
2018-04-29T12:22:16.714Z,59.23
2018-04-29T12:23:16.702Z,59.10
2018-04-29T12:24:16.680Z,58.20
2018-04-29T12:25:16.667Z,58.33
2018-04-29T12:26:16.646Z,57.94
2018-04-29T12:27:16.624Z,57.91
2018-04-29T12:28:16.616Z,58.69
2018-04-29T12:29:16.595Z,59.43
2018-04-29T12:30:16.579Z,62.82
2018-04-29T12:31:16.600Z,64.37
2018-04-29T12:32:16.553Z,62.92
2018-04-29T12:33:16.531Z,62.04
2018-04-29T12:34:16.507Z,62.69
2018-04-29T12:35:16.581Z,63.56
2018-04-29T12:36:16.484Z,63.43
2018-04-29T12:37:16.468Z,62.40
2018-04-29T12:38:16.452Z,60.55
2018-04-29T12:39:16.435Z,58.91
2018-04-29T12:40:16.416Z,57.42
2018-04-29T12:41:16.397Z,57.14
2018-04-29T12:42:16.387Z,57.43
2018-04-29T12:43:16.363Z,57.94
2018-04-29T12:44:16.358Z,58.88
2018-04-29T12:45:16.342Z,59.23
2018-04-29T12:46:16.318Z,58.78
2018-04-29T12:47:16.338Z,57.68
2018-04-29T12:48:16.280Z,55.92
2018-04-29T12:49:16.267Z,54.52
2018-04-29T12:50:16.282Z,55.04
2018-04-29T12:51:16.238Z,55.89
2018-04-29T12:52:16.320Z,56.25